Time;durP1;ratioP1;P1;durP2;ratioP2;P2;SDS_P1;SDS_P2;PMS_P1;PMS_P2;Temp;Humidity;BMP_temperature;BMP_pressure;BME280_temperature;BME280_humidity;BME280_pressure;Samples;Min_cycle;Max_cycle;Signal;HPM_P1;HPM_P2
2022/04/09 00:02:14;;;;;;;;;;;20.20;49.10;;;;;;5052742;28;19909;-70
2022/04/09 00:04:40;;;;;;;;;;;20.10;52.40;;;;;;5052284;28;19909;-70
2022/04/09 00:07:05;;;;;;;;;;;20.30;64.00;;;;;;5051649;28;19916;-67
2022/04/09 00:09:31;;;;;;;;;;;20.30;67.80;;;;;;5051119;28;19908;-65
2022/04/09 00:11:56;;;;;;;;;;;20.20;66.00;;;;;;5051899;28;19915;-69
2022/04/09 00:14:22;;;;;;;;;;;20.20;67.70;;;;;;5051152;28;19908;-69
2022/04/09 00:16:47;;;;;;;;;;;20.20;70.80;;;;;;5052027;28;19912;-73
2022/04/09 00:19:13;;;;;;;;;;;20.20;74.70;;;;;;5052198;28;19915;-72
2022/04/09 00:21:39;;;;;;;;;;;20.20;74.50;;;;;;5054361;28;19951;-71
2022/04/09 00:24:05;;;;;;;;;;;20.20;68.50;;;;;;5054246;28;19904;-73
2022/04/09 00:26:31;;;;;;;;;;;;;;;;;;5054146;28;19916;-74
2022/04/09 00:28:56;;;;;;;;;;;20.20;44.10;;;;;;5053677;28;20241;-73
2022/04/09 00:31:22;;;;;;;;;;;20.20;44.50;;;;;;5054088;28;19940;-71
2022/04/09 00:33:47;;;;;;;;;;;20.20;44.60;;;;;;5054086;28;19901;-74
2022/04/09 00:36:13;;;;;;;;;;;20.20;44.30;;;;;;5053818;28;19904;-72
2022/04/09 00:38:38;;;;;;;;;;;20.20;44.50;;;;;;5054811;28;19950;-73
2022/04/09 00:41:04;;;;;;;;;;;20.20;44.60;;;;;;5053630;28;20429;-72
2022/04/09 00:43:29;;;;;;;;;;;20.20;44.30;;;;;;5053666;28;19905;-72
2022/04/09 00:45:55;;;;;;;;;;;20.20;44.40;;;;;;5053916;28;19912;-72
2022/04/09 00:48:21;;;;;;;;;;;20.20;44.20;;;;;;5053517;28;19904;-72
2022/04/09 00:50:47;;;;;;;;;;;20.20;44.10;;;;;;5053284;28;19991;-73
2022/04/09 00:53:15;;;;;;;;;;;20.20;43.80;;;;;;5053618;28;19915;-72
2022/04/09 00:58:25;;;;;;;;;;;20.20;44.10;;;;;;5055114;28;20258;-73
2022/04/09 01:00:51;;;;;;;;;;;20.10;44.30;;;;;;5053322;28;20383;-73
2022/04/09 01:03:18;;;;;;;;;;;20.20;44.40;;;;;;5053425;28;19905;-73
2022/04/09 01:05:44;;;;;;;;;;;20.20;44.30;;;;;;5053444;28;19932;-74
2022/04/09 01:08:10;;;;;;;;;;;20.20;44.30;;;;;;5053266;28;20241;-74
2022/04/09 01:10:37;;;;;;;;;;;20.20;44.10;;;;;;5052902;28;19908;-74
2022/04/09 01:13:02;;;;;;;;;;;20.20;44.30;;;;;;5053216;28;19905;-73
2022/04/09 01:15:28;;;;;;;;;;;20.20;44.60;;;;;;5053269;28;20010;-73
2022/04/09 01:17:54;;;;;;;;;;;20.20;44.50;;;;;;5053234;28;19927;-73
2022/04/09 01:20:26;;;;;;;;;;;20.20;44.20;;;;;;5052809;28;19944;-74
2022/04/09 01:22:51;;;;;;;;;;;20.10;44.40;;;;;;5053084;28;19904;-73
2022/04/09 01:25:17;;;;;;;;;;;20.10;44.70;;;;;;5052936;28;19905;-73
2022/04/09 01:27:43;;;;;;;;;;;20.10;44.50;;;;;;5053082;28;19911;-73
2022/04/09 01:30:08;;;;;;;;;;;20.10;44.10;;;;;;5051796;28;19905;-73
2022/04/09 01:32:34;;;;;;;;;;;20.10;44.50;;;;;;5052722;28;20396;-73
2022/04/09 01:35:03;;;;;;;;;;;20.10;44.30;;;;;;5052944;28;20320;-73
2022/04/09 01:37:29;;;;;;;;;;;20.10;44.50;;;;;;5052902;28;19911;-73
2022/04/09 01:39:54;;;;;;;;;;;20.10;44.20;;;;;;5052390;28;19904;-72
2022/04/09 01:42:21;;;;;;;;;;;20.10;44.50;;;;;;5052846;28;20007;-73
2022/04/09 01:44:47;;;;;;;;;;;20.10;44.30;;;;;;5052709;28;20405;-73
2022/04/09 01:47:13;;;;;;;;;;;20.10;44.50;;;;;;5052641;28;20011;-73
2022/04/09 01:49:38;;;;;;;;;;;20.10;44.40;;;;;;5052146;28;19991;-73
2022/04/09 01:52:04;;;;;;;;;;;20.10;44.30;;;;;;5052339;28;19951;-73
2022/04/09 01:54:29;;;;;;;;;;;20.20;44.60;;;;;;5052586;28;19905;-72
2022/04/09 01:56:55;;;;;;;;;;;20.20;44.60;;;;;;5052573;28;19911;-72
2022/04/09 01:59:20;;;;;;;;;;;20.10;44.50;;;;;;5052098;28;19905;-73
2022/04/09 02:01:47;;;;;;;;;;;20.10;44.30;;;;;;5052350;28;19905;-73
2022/04/09 02:04:14;;;;;;;;;;;20.10;44.50;;;;;;5052450;28;19909;-74
2022/04/09 02:06:42;;;;;;;;;;;20.10;44.40;;;;;;5052337;28;19912;-74
2022/04/09 02:09:13;;;;;;;;;;;20.20;44.60;;;;;;5051881;28;19974;-75
2022/04/09 02:11:41;;;;;;;;;;;20.20;44.40;;;;;;5052290;28;19931;-73
2022/04/09 02:14:10;;;;;;;;;;;20.10;44.30;;;;;;5052161;28;19998;-73
2022/04/09 02:16:36;;;;;;;;;;;20.10;44.30;;;;;;5052253;28;19935;-73
2022/04/09 02:19:02;;;;;;;;;;;20.10;44.40;;;;;;5051752;28;19951;-73
2022/04/09 02:21:28;;;;;;;;;;;20.10;44.60;;;;;;5053394;28;19908;-73
2022/04/09 02:23:54;;;;;;;;;;;20.10;44.70;;;;;;5052491;28;19905;-73
2022/04/09 02:26:19;;;;;;;;;;;20.20;44.50;;;;;;5052146;28;19909;-73
2022/04/09 02:28:47;;;;;;;;;;;20.20;44.50;;;;;;5051807;28;19963;-73
2022/04/09 02:31:13;;;;;;;;;;;20.20;44.90;;;;;;5051999;28;19951;-73
2022/04/09 02:33:39;;;;;;;;;;;20.20;44.30;;;;;;5052027;28;19932;-71
2022/04/09 02:36:05;;;;;;;;;;;20.20;44.40;;;;;;5051977;28;19912;-72
2022/04/09 02:38:31;;;;;;;;;;;20.20;44.40;;;;;;5051676;28;19961;-70
2022/04/09 02:40:57;;;;;;;;;;;20.10;44.30;;;;;;5051949;28;19904;-72
2022/04/09 02:43:22;;;;;;;;;;;20.10;44.50;;;;;;5055670;28;20408;-72
2022/04/09 02:45:48;;;;;;;;;;;20.10;44.30;;;;;;5055994;28;19908;-71
2022/04/09 02:48:15;;;;;;;;;;;20.10;44.30;;;;;;5056094;28;19950;-71
2022/04/09 02:50:40;;;;;;;;;;;20.10;44.50;;;;;;5055399;28;19908;-71
2022/04/09 02:53:09;;;;;;;;;;;20.10;44.30;;;;;;5055949;28;19920;-72
2022/04/09 02:55:34;;;;;;;;;;;20.10;44.40;;;;;;5055982;28;19924;-72
2022/04/09 02:58:01;;;;;;;;;;;20.10;44.30;;;;;;5055887;28;19999;-72
2022/04/09 03:00:27;;;;;;;;;;;20.10;44.50;;;;;;5055416;28;19911;-71
2022/04/09 03:02:52;;;;;;;;;;;20.10;44.40;;;;;;5055699;28;19905;-71
2022/04/09 03:05:18;;;;;;;;;;;20.10;44.30;;;;;;5055519;28;19998;-72
2022/04/09 03:07:43;;;;;;;;;;;20.10;44.40;;;;;;5055681;28;19904;-71
2022/04/09 03:10:09;;;;;;;;;;;20.00;44.40;;;;;;5055293;28;20358;-71
2022/04/09 03:12:35;;;;;;;;;;;20.10;44.50;;;;;;5055569;28;20255;-71
2022/04/09 03:15:00;;;;;;;;;;;20.00;44.40;;;;;;5055586;28;19911;-72
2022/04/09 03:17:26;;;;;;;;;;;20.10;44.50;;;;;;5055445;28;19952;-71
2022/04/09 03:19:51;;;;;;;;;;;20.10;44.50;;;;;;5055099;28;19909;-71
2022/04/09 03:22:17;;;;;;;;;;;20.10;44.60;;;;;;5055416;28;20390;-72
2022/04/09 03:24:43;;;;;;;;;;;20.00;44.20;;;;;;5055575;28;20422;-72
2022/04/09 03:27:08;;;;;;;;;;;20.00;44.50;;;;;;5055306;28;20044;-71
2022/04/09 03:29:34;;;;;;;;;;;20.00;44.30;;;;;;5054793;28;20423;-72
2022/04/09 03:32:00;;;;;;;;;;;20.00;44.40;;;;;;5055230;28;19999;-72
2022/04/09 03:34:25;;;;;;;;;;;20.10;44.40;;;;;;5055237;28;19999;-73
2022/04/09 03:36:51;;;;;;;;;;;20.10;44.40;;;;;;5055260;28;19911;-72
2022/04/09 03:39:17;;;;;;;;;;;20.10;44.60;;;;;;5054619;28;19916;-69
2022/04/09 03:41:42;;;;;;;;;;;20.10;44.60;;;;;;5055087;28;19905;-71
2022/04/09 03:44:08;;;;;;;;;;;20.00;44.30;;;;;;5055096;28;19905;-72
2022/04/09 03:46:33;;;;;;;;;;;20.00;44.50;;;;;;5054870;28;19912;-72
2022/04/09 03:48:59;;;;;;;;;;;20.00;44.20;;;;;;5054594;28;20407;-69
2022/04/09 03:51:24;;;;;;;;;;;20.00;44.60;;;;;;5054813;28;19909;-69
2022/04/09 03:53:50;;;;;;;;;;;20.00;44.40;;;;;;5053772;28;19915;-71
2022/04/09 03:56:15;;;;;;;;;;;20.10;44.50;;;;;;5054649;28;19905;-71
2022/04/09 03:58:43;;;;;;;;;;;20.10;44.30;;;;;;5054389;28;19905;-71
2022/04/09 04:01:08;;;;;;;;;;;20.00;44.30;;;;;;5054381;28;19908;-73
2022/04/09 04:03:34;;;;;;;;;;;20.00;44.50;;;;;;5055822;28;19904;-73
2022/04/09 04:06:01;;;;;;;;;;;20.00;44.60;;;;;;5054686;28;19995;-71
2022/04/09 04:08:26;;;;;;;;;;;20.10;44.50;;;;;;5054445;28;19904;-70
2022/04/09 04:10:52;;;;;;;;;;;20.10;44.50;;;;;;5054364;28;20420;-74
2022/04/09 04:13:17;;;;;;;;;;;20.10;44.50;;;;;;5054581;28;19905;-74
2022/04/09 04:15:44;;;;;;;;;;;20.10;44.20;;;;;;5054486;28;19904;-74
2022/04/09 04:18:11;;;;;;;;;;;20.10;44.60;;;;;;5054443;28;19943;-73
2022/04/09 04:20:36;;;;;;;;;;;20.10;44.30;;;;;;5053952;28;20360;-72
2022/04/09 04:23:03;;;;;;;;;;;20.10;44.30;;;;;;5054316;28;19905;-72
2022/04/09 04:25:29;;;;;;;;;;;20.20;44.30;;;;;;5054061;28;19912;-73
2022/04/09 04:27:54;;;;;;;;;;;20.10;44.20;;;;;;5054084;28;19904;-73
2022/04/09 04:30:20;;;;;;;;;;;20.10;44.20;;;;;;5053609;28;19905;-70
2022/04/09 04:32:46;;;;;;;;;;;20.10;44.10;;;;;;5054149;28;19905;-72
2022/04/09 04:35:11;;;;;;;;;;;20.10;44.30;;;;;;5054114;28;20281;-73
2022/04/09 04:37:37;;;;;;;;;;;20.10;44.20;;;;;;5053975;28;20487;-71
2022/04/09 04:40:03;;;;;;;;;;;20.10;43.60;;;;;;5070255;28;19909;-71
2022/04/09 04:42:29;;;;;;;;;;;20.00;44.00;;;;;;5055217;28;19905;-73
2022/04/09 04:44:54;;;;;;;;;;;20.10;44.10;;;;;;5053910;28;19904;-71
2022/04/09 04:47:20;;;;;;;;;;;20.10;44.30;;;;;;5053746;28;20357;-73
2022/04/09 04:49:45;;;;;;;;;;;20.10;44.40;;;;;;5053290;28;19958;-75
2022/04/09 04:52:11;;;;;;;;;;;20.10;44.10;;;;;;5053551;28;19920;-75
2022/04/09 04:54:36;;;;;;;;;;;20.10;44.10;;;;;;5053689;28;19916;-76
2022/04/09 04:57:02;;;;;;;;;;;20.10;44.40;;;;;;5053541;28;19908;-73
2022/04/09 04:59:28;;;;;;;;;;;20.10;44.40;;;;;;5053167;28;19981;-70
2022/04/09 05:01:53;;;;;;;;;;;20.10;44.30;;;;;;5053558;28;20354;-71
2022/04/09 05:04:19;;;;;;;;;;;20.10;44.30;;;;;;5053368;28;19905;-71
2022/04/09 05:06:45;;;;;;;;;;;20.10;43.80;;;;;;5053447;28;19908;-72
2022/04/09 05:09:13;;;;;;;;;;;20.10;44.10;;;;;;5053044;28;19916;-71
2022/04/09 05:11:39;;;;;;;;;;;20.10;44.30;;;;;;5053263;28;20242;-71
2022/04/09 05:14:04;;;;;;;;;;;20.10;44.10;;;;;;5053308;28;19905;-71
2022/04/09 05:16:30;;;;;;;;;;;20.10;44.20;;;;;;5053122;28;19915;-73
2022/04/09 05:18:56;;;;;;;;;;;20.10;44.00;;;;;;5052837;28;19909;-70
2022/04/09 05:21:21;;;;;;;;;;;20.10;44.30;;;;;;5052949;28;19911;-69
2022/04/09 05:23:47;;;;;;;;;;;20.10;44.30;;;;;;5053230;28;20256;-67
2022/04/09 05:26:12;;;;;;;;;;;20.10;44.20;;;;;;5053075;28;19916;-70
2022/04/09 05:28:38;;;;;;;;;;;20.10;44.30;;;;;;5052726;28;19912;-70
2022/04/09 05:31:04;;;;;;;;;;;20.10;44.30;;;;;;5052865;28;19905;-70
2022/04/09 05:33:30;;;;;;;;;;;20.10;43.90;;;;;;5053025;28;20315;-69
2022/04/09 05:35:56;;;;;;;;;;;20.20;44.30;;;;;;5053042;28;19908;-66
2022/04/09 05:38:22;;;;;;;;;;;20.20;44.10;;;;;;5052732;28;19905;-68
2022/04/09 05:40:48;;;;;;;;;;;20.10;44.10;;;;;;5052638;28;19911;-69
2022/04/09 05:43:13;;;;;;;;;;;20.20;44.30;;;;;;5052879;28;20268;-68
2022/04/09 05:45:39;;;;;;;;;;;20.20;44.30;;;;;;5052722;28;19913;-70
2022/04/09 05:48:05;;;;;;;;;;;20.20;44.00;;;;;;5052665;28;19912;-70
2022/04/09 05:50:30;;;;;;;;;;;20.30;44.20;;;;;;5052055;28;19908;-68
2022/04/09 05:52:56;;;;;;;;;;;20.20;43.80;;;;;;5052479;28;19958;-67
2022/04/09 05:55:22;;;;;;;;;;;20.30;43.50;;;;;;5052738;28;20255;-70
2022/04/09 05:57:47;;;;;;;;;;;20.20;43.80;;;;;;5052504;28;19905;-67
2022/04/09 06:00:13;;;;;;;;;;;20.20;43.90;;;;;;5052133;28;20257;-71
2022/04/09 06:02:39;;;;;;;;;;;20.20;43.90;;;;;;5052389;28;19916;-69
2022/04/09 06:05:05;;;;;;;;;;;20.20;43.60;;;;;;5052413;28;19904;-69
2022/04/09 06:07:31;;;;;;;;;;;20.30;44.20;;;;;;5052391;28;19909;-70
2022/04/09 06:09:57;;;;;;;;;;;20.40;44.30;;;;;;5051903;28;19913;-68
2022/04/09 06:12:22;;;;;;;;;;;20.40;44.10;;;;;;5052320;28;19916;-70
2022/04/09 06:14:48;;;;;;;;;;;20.50;44.30;;;;;;5052322;28;19920;-70
2022/04/09 06:17:13;;;;;;;;;;;20.50;44.20;;;;;;5051728;28;19909;-70
2022/04/09 06:19:39;;;;;;;;;;;20.50;44.20;;;;;;5051729;28;19905;-71
2022/04/09 06:22:05;;;;;;;;;;;20.50;43.80;;;;;;5052211;28;19904;-69
2022/04/09 06:24:30;;;;;;;;;;;20.60;44.10;;;;;;5052121;28;19987;-71
2022/04/09 06:26:56;;;;;;;;;;;20.60;43.80;;;;;;5052150;28;20356;-70
2022/04/09 06:29:21;;;;;;;;;;;20.60;43.80;;;;;;5051764;28;19904;-71
2022/04/09 06:31:47;;;;;;;;;;;20.60;43.40;;;;;;5052013;28;19905;-70
2022/04/09 06:34:16;;;;;;;;;;;20.60;43.50;;;;;;5052222;28;19912;-69
2022/04/09 06:36:41;;;;;;;;;;;20.70;42.80;;;;;;5051989;28;19904;-69
2022/04/09 06:39:07;;;;;;;;;;;20.70;43.00;;;;;;5053122;28;20245;-70
2022/04/09 06:41:33;;;;;;;;;;;20.90;42.50;;;;;;5053151;28;19904;-70
2022/04/09 06:43:59;;;;;;;;;;;20.90;42.60;;;;;;5051964;28;20334;-69
2022/04/09 06:46:25;;;;;;;;;;;21.00;42.80;;;;;;5051974;28;19967;-70
2022/04/09 06:48:51;;;;;;;;;;;21.00;42.00;;;;;;5051550;28;19908;-71
2022/04/09 06:51:17;;;;;;;;;;;21.00;42.00;;;;;;5051558;28;19976;-69
2022/04/09 06:53:42;;;;;;;;;;;21.00;42.40;;;;;;5051994;28;19905;-70
2022/04/09 06:56:08;;;;;;;;;;;21.00;42.40;;;;;;5051928;28;20270;-70
2022/04/09 06:58:34;;;;;;;;;;;21.00;42.80;;;;;;5051571;28;19999;-72
2022/04/09 07:01:02;;;;;;;;;;;21.00;42.60;;;;;;5051837;28;19947;-71
2022/04/09 07:03:28;;;;;;;;;;;21.00;42.80;;;;;;5051887;28;19905;-69
2022/04/09 07:05:54;;;;;;;;;;;20.90;42.60;;;;;;5051726;28;20376;-70
2022/04/09 07:08:20;;;;;;;;;;;20.90;42.50;;;;;;5051744;28;19912;-72
2022/04/09 07:10:45;;;;;;;;;;;20.90;43.30;;;;;;5051382;28;19912;-70
2022/04/09 07:13:11;;;;;;;;;;;20.90;42.80;;;;;;5051793;28;19950;-73
2022/04/09 07:15:36;;;;;;;;;;;20.90;43.10;;;;;;5051461;28;20277;-72
2022/04/09 07:18:02;;;;;;;;;;;20.80;42.30;;;;;;5051544;28;19908;-73
2022/04/09 07:20:29;;;;;;;;;;;20.80;43.20;;;;;;5067796;28;20361;-75
2022/04/09 07:22:54;;;;;;;;;;;20.80;43.20;;;;;;5051509;28;19905;-74
2022/04/09 07:25:20;;;;;;;;;;;20.80;42.80;;;;;;5051596;28;19911;-73
2022/04/09 07:27:49;;;;;;;;;;;20.70;41.60;;;;;;5052277;28;20258;-73
2022/04/09 07:30:16;;;;;;;;;;;20.70;42.50;;;;;;5054973;28;19936;-73
2022/04/09 07:32:42;;;;;;;;;;;20.70;42.70;;;;;;5055125;28;19905;-74
2022/04/09 07:35:11;;;;;;;;;;;20.70;42.20;;;;;;5055186;28;19909;-73
2022/04/09 07:37:40;;;;;;;;;;;20.60;41.20;;;;;;5055305;28;19904;-74
2022/04/09 07:40:06;;;;;;;;;;;20.60;42.30;;;;;;5054809;28;19963;-72
2022/04/09 07:42:33;;;;;;;;;;;20.60;42.30;;;;;;5055034;28;20246;-71
2022/04/09 07:44:59;;;;;;;;;;;20.60;42.10;;;;;;5055157;28;19905;-71
2022/04/09 07:47:24;;;;;;;;;;;20.70;42.90;;;;;;5054864;28;19962;-71
2022/04/09 07:49:50;;;;;;;;;;;20.60;42.30;;;;;;5054317;28;19908;-71
2022/04/09 07:52:15;;;;;;;;;;;20.60;41.70;;;;;;5055889;28;19920;-71
2022/04/09 07:54:41;;;;;;;;;;;20.60;42.00;;;;;;5056011;28;19905;-71
2022/04/09 07:57:06;;;;;;;;;;;20.80;42.10;;;;;;5054653;28;20345;-71
2022/04/09 07:59:32;;;;;;;;;;;20.90;41.40;;;;;;5054351;28;20004;-71
2022/04/09 08:01:57;;;;;;;;;;;21.00;41.30;;;;;;5054783;28;20042;-71
2022/04/09 08:04:23;;;;;;;;;;;21.10;41.20;;;;;;5054689;28;19904;-71
2022/04/09 08:06:48;;;;;;;;;;;21.30;41.10;;;;;;5054521;28;19909;-71
2022/04/09 08:09:14;;;;;;;;;;;21.30;40.60;;;;;;5070925;28;20427;-71
2022/04/09 08:11:39;;;;;;;;;;;21.40;41.10;;;;;;5054495;28;20358;-71
2022/04/09 08:14:05;;;;;;;;;;;21.40;40.80;;;;;;5054570;28;19909;-71
2022/04/09 08:16:30;;;;;;;;;;;21.40;40.50;;;;;;5054384;28;19909;-71
2022/04/09 08:18:57;;;;;;;;;;;21.30;40.50;;;;;;5053988;28;19904;-71
2022/04/09 08:21:22;;;;;;;;;;;21.30;41.20;;;;;;5054225;28;20339;-71
2022/04/09 08:23:48;;;;;;;;;;;21.30;41.10;;;;;;5054244;28;19951;-71
2022/04/09 08:26:14;;;;;;;;;;;21.30;40.80;;;;;;5070785;28;19908;-71
2022/04/09 08:28:39;;;;;;;;;;;21.40;41.60;;;;;;5053976;28;19905;-71
2022/04/09 08:31:06;;;;;;;;;;;21.40;41.30;;;;;;5054014;28;19908;-71
2022/04/09 08:33:32;;;;;;;;;;;21.40;41.20;;;;;;5054122;28;19904;-71
2022/04/09 08:35:58;;;;;;;;;;;21.40;41.50;;;;;;5054133;28;20007;-71
2022/04/09 08:38:23;;;;;;;;;;;21.40;40.90;;;;;;5053827;28;19974;-71
2022/04/09 08:40:49;;;;;;;;;;;21.30;40.20;;;;;;5053189;28;20345;-71
2022/04/09 08:43:15;;;;;;;;;;;21.30;40.30;;;;;;5053960;28;19905;-71
2022/04/09 08:45:40;;;;;;;;;;;21.30;40.90;;;;;;5053869;28;20250;-71
2022/04/09 08:48:07;;;;;;;;;;;21.30;41.60;;;;;;5053783;28;19905;-70
2022/04/09 08:50:33;;;;;;;;;;;21.30;41.30;;;;;;5053399;28;19991;-70
2022/04/09 08:53:05;;;;;;;;;;;21.30;41.20;;;;;;5053788;28;19972;-71
2022/04/09 08:55:30;;;;;;;;;;;21.30;40.60;;;;;;5053757;28;19944;-71
2022/04/09 08:57:56;;;;;;;;;;;21.20;40.20;;;;;;5053770;28;20006;-71
2022/04/09 09:00:22;;;;;;;;;;;21.20;40.60;;;;;;5053227;28;19905;-71
2022/04/09 09:02:49;;;;;;;;;;;21.20;40.50;;;;;;5053548;28;19905;-71
2022/04/09 09:05:28;;;;;;;;;;;21.20;40.00;;;;;;5053645;28;20369;-71
2022/04/09 09:07:53;;;;;;;;;;;21.20;40.80;;;;;;5053516;28;19940;-71
2022/04/09 09:10:19;;;;;;;;;;;21.30;41.10;;;;;;5053057;28;19905;-71
2022/04/09 09:12:55;;;;;;;;;;;21.30;40.90;;;;;;5053401;28;19904;-71
2022/04/09 09:15:21;;;;;;;;;;;21.30;40.90;;;;;;5053428;28;19905;-71
2022/04/09 09:17:47;;;;;;;;;;;21.30;40.90;;;;;;5053088;28;19904;-72
2022/04/09 09:20:14;;;;;;;;;;;21.30;40.60;;;;;;5052807;28;19911;-71
2022/04/09 09:22:40;;;;;;;;;;;21.20;40.50;;;;;;5069649;28;19915;-71
2022/04/09 09:25:07;;;;;;;;;;;21.50;41.40;;;;;;5053233;28;20011;-70
2022/04/09 09:27:32;;;;;;;;;;;21.60;40.30;;;;;;5053142;28;19958;-70
2022/04/09 09:29:58;;;;;;;;;;;21.50;40.10;;;;;;5052555;28;19909;-70
2022/04/09 09:32:25;;;;;;;;;;;21.50;41.10;;;;;;5053034;28;20219;-70
2022/04/09 09:34:55;;;;;;;;;;;21.40;41.00;;;;;;5052876;28;19987;-70
2022/04/09 09:37:21;;;;;;;;;;;21.40;40.90;;;;;;5052855;28;20406;-70
2022/04/09 09:39:47;;;;;;;;;;;21.40;40.50;;;;;;5053687;28;20353;-70
2022/04/09 09:42:17;;;;;;;;;;;21.70;41.00;;;;;;5052835;28;19904;-70
2022/04/09 09:44:43;;;;;;;;;;;21.80;40.60;;;;;;5052866;28;19975;-69
2022/04/09 09:47:09;;;;;;;;;;;21.80;40.10;;;;;;5053840;28;20369;-70
2022/04/09 09:49:56;;;;;;;;;;;21.60;41.00;;;;;;5052257;28;20380;-69
2022/04/09 09:52:31;;;;;;;;;;;21.50;40.10;;;;;;5051474;28;19916;-70
2022/04/09 09:55:02;;;;;;;;;;;21.50;41.10;;;;;;5052418;28;19912;-70
2022/04/09 09:57:28;;;;;;;;;;;21.40;39.70;;;;;;5052416;28;19909;-70
2022/04/09 09:59:59;;;;;;;;;;;21.40;41.00;;;;;;5051873;28;19947;-70
2022/04/09 10:02:25;;;;;;;;;;;21.40;39.90;;;;;;5052231;28;19912;-70
2022/04/09 10:04:51;;;;;;;;;;;21.40;40.20;;;;;;5052374;28;19965;-70
2022/04/09 10:07:20;;;;;;;;;;;21.40;40.20;;;;;;5052416;28;19909;-69
2022/04/09 10:09:48;;;;;;;;;;;21.40;40.10;;;;;;5051993;28;19905;-69
2022/04/09 10:12:14;;;;;;;;;;;21.40;40.80;;;;;;5052327;28;19908;-70
2022/04/09 10:14:40;;;;;;;;;;;21.40;40.50;;;;;;5051974;28;20068;-69
2022/04/09 10:17:08;;;;;;;;;;;21.50;41.00;;;;;;5052156;28;19959;-69
2022/04/09 10:19:39;;;;;;;;;;;21.70;40.90;;;;;;5051649;28;19974;-69
2022/04/09 10:22:05;;;;;;;;;;;21.80;41.00;;;;;;5051964;28;19904;-69
2022/04/09 10:24:31;;;;;;;;;;;21.90;41.00;;;;;;5052105;28;19908;-70
2022/04/09 10:26:58;;;;;;;;;;;21.90;40.80;;;;;;5052175;28;19935;-69
2022/04/09 10:29:24;;;;;;;;;;;21.90;40.80;;;;;;5051801;28;19905;-72
2022/04/09 10:31:51;;;;;;;;;;;21.80;40.90;;;;;;5051858;28;20354;-70
2022/04/09 10:34:17;;;;;;;;;;;21.80;40.60;;;;;;5052056;28;19959;-70
2022/04/09 10:36:43;;;;;;;;;;;21.70;41.60;;;;;;5051941;28;20320;-72
2022/04/09 10:39:36;;;;;;;;;;;21.80;41.00;;;;;;5068215;28;19904;-69
2022/04/09 10:42:02;;;;;;;;;;;21.80;40.70;;;;;;5051907;28;19944;-70
2022/04/09 10:44:37;;;;;;;;;;;21.80;40.80;;;;;;5052028;28;20300;-70
2022/04/09 10:47:03;;;;;;;;;;;21.70;40.70;;;;;;5068480;28;19908;-71
2022/04/09 10:49:30;;;;;;;;;;;21.70;41.10;;;;;;5051390;28;19904;-69
2022/04/09 10:52:03;;;;;;;;;;;21.70;40.90;;;;;;5051628;28;19920;-70
2022/04/09 10:54:29;;;;;;;;;;;21.80;41.00;;;;;;5051703;28;19904;-69
2022/04/09 10:56:54;;;;;;;;;;;21.80;41.00;;;;;;5051686;28;19905;-68
2022/04/09 10:59:20;;;;;;;;;;;21.80;41.00;;;;;;5052708;28;20436;-70
2022/04/09 11:01:48;;;;;;;;;;;21.70;40.80;;;;;;5068434;28;20046;-70
2022/04/09 11:04:26;;;;;;;;;;;21.70;40.10;;;;;;5071750;28;19948;-70
2022/04/09 11:07:10;;;;;;;;;;;21.70;41.00;;;;;;5072308;28;19909;-70
2022/04/09 11:09:42;;;;;;;;;;;21.70;41.00;;;;;;5072063;28;19911;-71
2022/04/09 11:12:07;;;;;;;;;;;21.70;40.50;;;;;;5057098;28;20250;-71
2022/04/09 11:14:43;;;;;;;;;;;21.70;41.00;;;;;;5055583;28;19911;-71
2022/04/09 11:17:19;;;;;;;;;;;21.70;40.60;;;;;;5055571;28;20368;-69
2022/04/09 11:19:45;;;;;;;;;;;21.70;40.50;;;;;;5053045;28;20361;-69
2022/04/09 11:22:11;;;;;;;;;;;21.70;40.80;;;;;;5053845;28;19909;-70
2022/04/09 11:24:37;;;;;;;;;;;21.80;40.80;;;;;;5053594;28;19904;-70
2022/04/09 11:27:02;;;;;;;;;;;21.80;41.10;;;;;;5054063;28;19931;-69
2022/04/09 11:29:32;;;;;;;;;;;21.80;41.10;;;;;;5053125;28;20361;-70
2022/04/09 11:31:58;;;;;;;;;;;21.80;41.20;;;;;;5055419;28;19911;-69
2022/04/09 11:34:25;;;;;;;;;;;21.80;41.10;;;;;;5053405;28;19905;-68
2022/04/09 11:36:52;;;;;;;;;;;21.80;41.10;;;;;;5053899;28;19908;-71
2022/04/09 11:39:18;;;;;;;;;;;21.70;41.00;;;;;;5053234;28;20353;-72
2022/04/09 11:41:47;;;;;;;;;;;21.70;41.00;;;;;;5053758;28;20444;-70
2022/04/09 11:44:28;;;;;;;;;;;21.70;41.00;;;;;;5053600;28;19905;-70
2022/04/09 11:46:54;;;;;;;;;;;21.70;40.70;;;;;;5053717;28;20281;-69
2022/04/09 11:49:19;;;;;;;;;;;21.70;41.00;;;;;;5052710;28;19905;-68
2022/04/09 11:51:55;;;;;;;;;;;21.70;41.00;;;;;;5053320;28;19974;-72
2022/04/09 11:54:20;;;;;;;;;;;21.70;41.10;;;;;;5053292;28;20003;-70
2022/04/09 11:56:46;;;;;;;;;;;21.70;41.10;;;;;;5053633;28;19991;-70
2022/04/09 11:59:13;;;;;;;;;;;21.70;41.10;;;;;;5052853;28;20266;-70
2022/04/09 12:01:39;;;;;;;;;;;21.70;40.70;;;;;;5053218;28;19947;-69
2022/04/09 12:04:05;;;;;;;;;;;21.60;39.60;;;;;;5053395;28;19944;-70
2022/04/09 12:06:30;;;;;;;;;;;21.60;40.50;;;;;;5052763;28;19951;-69
2022/04/09 12:08:56;;;;;;;;;;;21.60;41.60;;;;;;5053038;28;19904;-70
2022/04/09 12:11:21;;;;;;;;;;;21.60;40.50;;;;;;5052585;28;19971;-72
2022/04/09 12:13:52;;;;;;;;;;;21.60;39.80;;;;;;5053162;28;19909;-69
2022/04/09 12:16:18;;;;;;;;;;;21.60;39.70;;;;;;5052139;28;19911;-69
2022/04/09 12:18:44;;;;;;;;;;;21.60;40.50;;;;;;5052808;28;19908;-69
2022/04/09 12:21:23;;;;;;;;;;;21.60;39.90;;;;;;5052474;28;19912;-70
2022/04/09 12:24:24;;;;;;;;;;;21.60;39.20;;;;;;5053111;28;19905;-69
2022/04/09 12:26:53;;;;;;;;;;;21.50;38.80;;;;;;5015369;28;20372;-70
2022/04/09 12:29:22;;;;;;;;;;;21.50;39.50;;;;;;5044245;28;19908;-70
2022/04/09 12:31:51;;;;;;;;;;;21.50;39.40;;;;;;5052733;28;19987;-70
2022/04/09 12:34:20;;;;;;;;;;;21.50;39.90;;;;;;5052582;28;19905;-69
2022/04/09 12:37:06;;;;;;;;;;;21.50;40.70;;;;;;5052948;28;19987;-71
2022/04/09 12:39:33;;;;;;;;;;;21.50;40.20;;;;;;5051643;28;20256;-70
2022/04/09 12:41:59;;;;;;;;;;;21.50;39.20;;;;;;5052813;28;19909;-69
2022/04/09 12:44:26;;;;;;;;;;;21.50;38.50;;;;;;5053307;28;19911;-69
2022/04/09 12:46:53;;;;;;;;;;;21.50;39.40;;;;;;5052277;28;19912;-70
2022/04/09 12:49:19;;;;;;;;;;;21.50;40.40;;;;;;5051497;28;20518;-69
2022/04/09 12:51:46;;;;;;;;;;;21.50;40.40;;;;;;5052211;28;19948;-70
2022/04/09 12:54:12;;;;;;;;;;;21.50;39.70;;;;;;5051699;28;19908;-69
2022/04/09 12:56:39;;;;;;;;;;;21.50;39.50;;;;;;5052515;28;20353;-69
2022/04/09 12:59:04;;;;;;;;;;;21.40;39.50;;;;;;5051670;28;19905;-69
2022/04/09 13:01:30;;;;;;;;;;;21.40;38.80;;;;;;5068490;28;19905;-69
2022/04/09 13:03:55;;;;;;;;;;;21.40;38.80;;;;;;5052186;28;19965;-69
2022/04/09 13:06:21;;;;;;;;;;;21.40;39.50;;;;;;5051411;28;19912;-70
2022/04/09 13:08:46;;;;;;;;;;;21.40;40.10;;;;;;5051841;28;19909;-70
2022/04/09 13:11:14;;;;;;;;;;;21.40;39.40;;;;;;5051338;28;19998;-69
2022/04/09 13:13:41;;;;;;;;;;;21.40;39.80;;;;;;5051908;28;20456;-70
2022/04/09 13:16:06;;;;;;;;;;;21.40;39.10;;;;;;5051147;28;19935;-70
2022/04/09 13:18:32;;;;;;;;;;;21.40;39.10;;;;;;5051077;28;20354;-69
2022/04/09 13:20:57;;;;;;;;;;;21.40;39.20;;;;;;5051519;28;20313;-70
2022/04/09 13:23:23;;;;;;;;;;;21.40;40.50;;;;;;5051052;28;20441;-70
2022/04/09 13:25:50;;;;;;;;;;;21.40;40.00;;;;;;5051548;28;19904;-70
2022/04/09 13:28:16;;;;;;;;;;;21.40;39.10;;;;;;5051371;28;20308;-70
2022/04/09 13:30:41;;;;;;;;;;;21.40;39.50;;;;;;5052835;28;19911;-70
2022/04/09 13:33:07;;;;;;;;;;;21.30;38.40;;;;;;5051148;28;20342;-68
2022/04/09 13:35:34;;;;;;;;;;;21.30;38.60;;;;;;5051758;28;20000;-71
2022/04/09 13:37:59;;;;;;;;;;;21.30;38.80;;;;;;5052775;28;19951;-69
2022/04/09 13:40:25;;;;;;;;;;;21.30;38.60;;;;;;5050518;28;19943;-69
2022/04/09 13:42:51;;;;;;;;;;;21.30;39.40;;;;;;5050425;28;19908;-70
2022/04/09 13:45:16;;;;;;;;;;;21.30;40.10;;;;;;5051185;28;19904;-69
2022/04/09 13:47:42;;;;;;;;;;;21.30;39.10;;;;;;5050305;28;19908;-69
2022/04/09 13:50:08;;;;;;;;;;;21.30;40.20;;;;;;5050260;28;19905;-69
2022/04/09 13:52:33;;;;;;;;;;;21.30;39.30;;;;;;5051030;28;19913;-69
2022/04/09 13:55:00;;;;;;;;;;;21.30;39.50;;;;;;5051502;28;19909;-70
2022/04/09 13:57:26;;;;;;;;;;;21.40;40.30;;;;;;5052648;28;19905;-68
2022/04/09 13:59:52;;;;;;;;;;;21.30;39.30;;;;;;5052263;28;20329;-69
2022/04/09 14:02:18;;;;;;;;;;;21.30;40.50;;;;;;5052429;28;19909;-69
2022/04/09 14:04:43;;;;;;;;;;;21.40;41.00;;;;;;5052434;28;19999;-70
2022/04/09 14:07:09;;;;;;;;;;;21.40;40.90;;;;;;5052242;28;19992;-72
2022/04/09 14:09:35;;;;;;;;;;;21.40;41.10;;;;;;5053250;28;19951;-71
2022/04/09 14:12:00;;;;;;;;;;;21.30;40.10;;;;;;5053812;28;19959;-70
2022/04/09 14:14:26;;;;;;;;;;;21.30;41.00;;;;;;5053813;28;19904;-71
2022/04/09 14:16:52;;;;;;;;;;;21.40;41.00;;;;;;5048860;28;19909;-70
2022/04/09 14:19:18;;;;;;;;;;;21.30;40.40;;;;;;5050754;28;19904;-70